CheckWX is a tool to help pilots better visualize weather data.  It is not intended as a substitute for an official pre-flight weather briefing.

01:30:01 UTC

MSSA METAR
El Palmer Airport
Santa Ana, El Salvador
Current

2 hours ago

MSSA 042350Z 29003KT 9999 -DZ SCT027 FEW037CB SCT040 21/21 Q1012 A2990
Observed
Jul-4 @ 23:50 UTC
Wind
  • 290° at 3 KTS
Visibility
10,000+ meters
Flight Rules
VFR
Conditions
Light Drizzle
Cloud Levels
  • Scattered at 2,700' AGL
  • Few at 3,700' AGL
  • Scattered at 4,000' AGL
Temperature
21°C / 70°F
Dewpoint
21°C / 70°F
Humidity
100%
Altimeter
29.88" Hg
Pressure
1011.92 hPa
Previous

3 hours ago

MSSA 042250Z 07010KT 5000 +TSRA FEW020 SCT037CB BKN040 24/22 Q1013 A2993
Observed
Jul-4 @ 22:50 UTC
Wind
  • 070° at 10 KTS
Visibility
5005 meters
Flight Rules
MVFR
Conditions
Heavy Thunderstorm, Rain
Cloud Levels
  • Few at 2,000' AGL
  • Scattered at 3,700' AGL
  • Broken at 4,000' AGL
Temperature
24°C / 75°F
Dewpoint
22°C / 72°F
Humidity
89%
Altimeter
29.91" Hg
Pressure
1012.92 hPa
Previous

4 hours ago

MSSA 042150Z 28002KT 9999 SCT033 FEW037CB 31/21 Q1011 A2987
Observed
Jul-4 @ 21:50 UTC
Wind
  • 280° at 2 KTS
Visibility
10,000+ meters
Flight Rules
VFR
Cloud Levels
  • Scattered at 3,300' AGL
  • Few at 3,700' AGL
Temperature
31°C / 88°F
Dewpoint
21°C / 70°F
Humidity
55%
Altimeter
29.85" Hg
Pressure
1010.92 hPa